Time;durP1;ratioP1;P1;durP2;ratioP2;P2;SDS_P1;SDS_P2;PMS_P1;PMS_P2;Temp;Humidity;BMP_temperature;BMP_pressure;BME280_temperature;BME280_humidity;BME280_pressure;Samples;Min_cycle;Max_cycle;Signal;HPM_P1;HPM_P2
2021/12/27 00:02:00;;;;;;;0.97;0.90;;;5.00;1.00;;;;;;4982818;28;20217;-91
2021/12/27 00:04:28;;;;;;;1.00;0.60;;;4.90;1.00;;;;;;4998617;28;20197;-89
2021/12/27 00:06:55;;;;;;;0.67;0.47;;;4.90;1.00;;;;;;4966634;28;20196;-87
2021/12/27 00:09:22;;;;;;;0.83;0.50;;;4.90;1.00;;;;;;4967633;28;20197;-90
2021/12/27 00:11:49;;;;;;;0.80;0.73;;;5.00;1.00;;;;;;4984525;28;20722;-91
2021/12/27 00:14:18;;;;;;;2.80;0.63;;;4.90;1.00;;;;;;5000507;28;20208;-91
2021/12/27 00:16:45;;;;;;;0.93;0.70;;;4.80;1.00;;;;;;4983589;28;20193;-91
2021/12/27 00:19:12;;;;;;;2.03;1.40;;;4.60;1.00;;;;;;4983605;28;20201;-91
2021/12/27 00:21:39;;;;;;;1.83;1.20;;;4.30;1.00;;;;;;4983820;28;20217;-91
2021/12/27 00:24:09;;;;;;;1.40;1.03;;;4.10;1.00;;;;;;4983291;28;20191;-91
2021/12/27 00:26:39;;;;;;;15.23;1.60;;;3.90;1.00;;;;;;4983850;28;20212;-92
2021/12/27 00:29:09;;;;;;;321.87;13.10;;;3.80;1.00;;;;;;4983033;28;20774;-88
2021/12/27 00:31:36;;;;;;;330.47;16.27;;;3.70;1.00;;;;;;4998678;28;20904;-89
2021/12/27 00:34:03;;;;;;;395.80;15.70;;;3.80;1.00;;;;;;4998743;28;20197;-89
2021/12/27 00:36:30;;;;;;;671.40;30.37;;;3.90;1.00;;;;;;4982782;28;20199;-89
2021/12/27 00:38:57;;;;;;;453.17;22.17;;;4.00;1.00;;;;;;4982452;28;20233;-88
2021/12/27 00:41:24;;;;;;;676.37;27.03;;;4.10;1.00;;;;;;4982263;28;20240;-88
2021/12/27 00:43:51;;;;;;;790.33;38.97;;;4.10;1.00;;;;;;4982092;28;20251;-88
2021/12/27 00:46:17;;;;;;;853.53;39.13;;;4.20;1.00;;;;;;4981775;28;20239;-88
2021/12/27 00:48:44;;;;;;;831.73;38.17;;;4.30;1.00;;;;;;4998494;28;20216;-89
2021/12/27 00:51:11;;;;;;;808.30;36.07;;;4.20;1.00;;;;;;4998693;28;20540;-89
2021/12/27 00:53:39;;;;;;;711.07;31.40;;;4.20;1.00;;;;;;4998372;28;20210;-91
2021/12/27 00:56:06;;;;;;;817.57;32.13;;;4.20;1.00;;;;;;4998021;28;20563;-91
2021/12/27 00:58:33;;;;;;;369.90;17.47;;;4.10;1.00;;;;;;4982609;28;20698;-89
2021/12/27 01:01:00;;;;;;;419.13;16.17;;;4.10;1.00;;;;;;4981725;28;20216;-90
2021/12/27 01:03:27;;;;;;;278.63;14.53;;;4.10;1.00;;;;;;4982171;28;20260;-88
2021/12/27 01:05:56;;;;;;;279.83;13.27;;;4.10;1.00;;;;;;4966278;28;20185;-90
2021/12/27 01:08:23;;;;;;;306.83;15.70;;;4.00;1.00;;;;;;4981907;28;20292;-89
2021/12/27 01:18:15;;;;;;;6.17;4.00;;;3.90;1.00;;;;;;5001495;28;20657;-89
2021/12/27 01:20:42;;;;;;;5.60;3.40;;;3.80;1.00;;;;;;4985176;28;20236;-89
2021/12/27 01:23:10;;;;;;;2.53;1.97;;;3.80;1.00;;;;;;4969545;28;20257;-88
2021/12/27 01:25:37;;;;;;;2.13;1.63;;;3.90;1.00;;;;;;4984778;28;20197;-88
2021/12/27 01:28:05;;;;;;;2.80;1.97;;;3.90;1.00;;;;;;4985273;28;20193;-89
2021/12/27 01:30:37;;;;;;;3.37;1.60;;;3.90;1.00;;;;;;5001008;28;20201;-90
2021/12/27 01:33:06;;;;;;;1.57;1.47;;;3.90;1.00;;;;;;4985709;28;20193;-90
2021/12/27 01:35:35;;;;;;;3.80;1.73;;;3.90;1.00;;;;;;4985740;28;20201;-89
2021/12/27 01:38:03;;;;;;;1.90;1.50;;;4.00;1.00;;;;;;5001317;28;20196;-89
2021/12/27 01:40:30;;;;;;;1.67;1.43;;;4.00;1.00;;;;;;5002275;28;20213;-89
2021/12/27 01:43:03;;;;;;;4.03;1.53;;;4.10;1.00;;;;;;4985537;28;20216;-88
2021/12/27 01:45:30;;;;;;;1.87;1.50;;;4.10;1.00;;;;;;4984986;28;20220;-86
2021/12/27 01:47:57;;;;;;;2.80;2.10;;;4.10;1.00;;;;;;4969406;28;20189;-89
2021/12/27 01:50:24;;;;;;;2.50;1.83;;;4.10;1.00;;;;;;4985611;28;20668;-90
2021/12/27 01:52:51;;;;;;;2.40;1.83;;;4.20;1.00;;;;;;4984861;28;20553;-89
2021/12/27 01:55:18;;;;;;;1.50;1.40;;;4.20;1.00;;;;;;4985330;28;20197;-89
2021/12/27 01:57:46;;;;;;;2.03;1.40;;;4.20;1.00;;;;;;4985241;28;20195;-90
2021/12/27 02:00:13;;;;;;;1.47;1.37;;;4.20;1.00;;;;;;4984334;28;20251;-89
2021/12/27 02:02:44;;;;;;;2.30;1.70;;;4.20;1.00;;;;;;5000281;28;20193;-90
2021/12/27 02:05:12;;;;;;;1.63;1.33;;;4.20;1.00;;;;;;4985126;28;20283;-89
2021/12/27 02:07:39;;;;;;;3.10;1.90;;;4.20;1.00;;;;;;4985067;28;20224;-89
2021/12/27 02:10:08;;;;;;;2.30;1.90;;;4.20;1.00;;;;;;4984984;28;20640;-90
2021/12/27 02:12:35;;;;;;;2.40;1.90;;;4.20;1.00;;;;;;4984862;28;20212;-88
2021/12/27 02:15:07;;;;;;;2.93;2.30;;;4.20;1.00;;;;;;4985170;28;20196;-89
2021/12/27 02:17:36;;;;;;;3.73;2.77;;;4.10;1.00;;;;;;4984636;28;20181;-88
2021/12/27 02:20:16;;;;;;;5.53;3.57;;;4.10;1.00;;;;;;4984777;28;20205;-89
2021/12/27 02:22:44;;;;;;;6.57;3.93;;;3.90;1.00;;;;;;4984583;28;21023;-88
2021/12/27 02:25:12;;;;;;;5.30;3.73;;;3.80;1.00;;;;;;4983410;28;20212;-89
2021/12/27 02:27:41;;;;;;;6.37;4.20;;;3.70;1.00;;;;;;5018405;28;20190;-89
2021/12/27 02:30:11;;;;;;;9.77;4.90;;;3.70;1.00;;;;;;4984599;28;20197;-89
2021/12/27 02:32:52;;;;;;;28.50;6.63;;;3.70;1.00;;;;;;5000141;28;20239;-89
2021/12/27 02:35:23;;;;;;;210.97;15.73;;;3.70;1.00;;;;;;4984212;28;20189;-88
2021/12/27 02:37:51;;;;;;;504.67;27.23;;;3.70;1.00;;;;;;4984252;28;20189;-88
2021/12/27 02:40:21;;;;;;;608.10;30.53;;;3.70;1.00;;;;;;4984424;28;20220;-88
2021/12/27 02:43:08;;;;;;;426.27;21.57;;;3.70;1.00;;;;;;5001355;28;20221;-88
2021/12/27 02:45:39;;;;;;;368.17;18.00;;;3.70;1.00;;;;;;4985806;28;20251;-88
2021/12/27 02:48:08;;;;;;;499.10;24.07;;;3.70;1.00;;;;;;4966625;28;20185;-89
2021/12/27 02:50:36;;;;;;;498.33;24.63;;;3.70;1.00;;;;;;4966867;28;20533;-88
2021/12/27 02:53:04;;;;;;;225.13;15.23;;;3.80;1.00;;;;;;4982287;28;20549;-89
2021/12/27 02:55:31;;;;;;;590.83;23.50;;;3.80;1.00;;;;;;4982525;28;20221;-88
2021/12/27 02:57:59;;;;;;;502.57;26.87;;;3.80;1.00;;;;;;4970730;28;20185;-88
2021/12/27 03:00:49;;;;;;;643.27;28.47;;;3.80;1.00;;;;;;4987243;28;20287;-88
2021/12/27 03:03:18;;;;;;;359.37;24.63;;;3.80;1.00;;;;;;4983854;28;20197;-88
2021/12/27 03:05:45;;;;;;;480.50;27.53;;;3.80;1.00;;;;;;4999798;28;20249;-86
2021/12/27 03:08:14;;;;;;;634.13;26.10;;;3.80;1.00;;;;;;4983204;28;20189;-86
2021/12/27 03:10:50;;;;;;;240.83;19.30;;;3.80;1.00;;;;;;4983903;28;20185;-87
2021/12/27 03:13:35;;;;;;;429.67;19.50;;;3.90;1.00;;;;;;4983153;28;20228;-87
2021/12/27 03:16:09;;;;;;;231.43;16.70;;;3.80;1.00;;;;;;4982954;28;20305;-87
2021/12/27 03:18:39;;;;;;;359.73;21.67;;;3.80;1.00;;;;;;4998670;28;20192;-88
2021/12/27 03:21:06;;;;;;;257.93;16.20;;;3.80;1.00;;;;;;4999586;28;20223;-88
2021/12/27 03:23:35;;;;;;;204.63;13.77;;;3.80;1.00;;;;;;4999034;28;20208;-88
2021/12/27 03:26:03;;;;;;;67.37;7.40;;;3.70;1.00;;;;;;4983321;28;20193;-88
2021/12/27 03:28:30;;;;;;;75.00;8.60;;;3.70;1.00;;;;;;4983307;28;20189;-89
2021/12/27 03:30:57;;;;;;;7.17;4.00;;;3.60;1.00;;;;;;4999468;28;20239;-89
2021/12/27 03:33:25;;;;;;;6.87;3.40;;;3.60;1.00;;;;;;5000127;28;20595;-89
2021/12/27 03:36:02;;;;;;;14.17;4.50;;;3.70;1.00;;;;;;4999388;28;20209;-88
2021/12/27 03:38:36;;;;;;;544.23;26.90;;;3.70;1.00;;;;;;4983259;28;20189;-89
2021/12/27 03:41:06;;;;;;;479.07;20.47;;;3.60;1.00;;;;;;4998833;28;20204;-89
2021/12/27 03:43:32;;;;;;;97.60;7.27;;;3.30;1.00;;;;;;4998235;28;20177;-89
2021/12/27 03:45:59;;;;;;;4.37;2.60;;;3.20;1.00;;;;;;4982886;28;20301;-89
2021/12/27 03:48:28;;;;;;;3.53;2.50;;;3.20;1.00;;;;;;4983355;28;20193;-90
2021/12/27 03:50:55;;;;;;;3.83;2.17;;;3.30;1.00;;;;;;4968074;28;20197;-89
2021/12/27 03:53:22;;;;;;;4.67;2.20;;;3.80;1.00;;;;;;4983778;28;20616;-90
2021/12/27 03:55:50;;;;;;;6.03;2.43;;;4.00;1.00;;;;;;4982795;28;20197;-90
2021/12/27 03:58:33;;;;;;;5.27;2.27;;;4.20;1.00;;;;;;4984027;28;20185;-90
2021/12/27 04:01:13;;;;;;;5.73;2.20;;;4.30;1.00;;;;;;4982516;28;20185;-89
2021/12/27 04:03:44;;;;;;;2.10;1.87;;;4.40;1.00;;;;;;5015878;28;20623;-88
2021/12/27 04:06:13;;;;;;;2.93;2.20;;;4.40;1.00;;;;;;4982021;28;20678;-88
2021/12/27 04:08:40;;;;;;;2.37;2.03;;;4.50;1.00;;;;;;4982181;28;20189;-88
2021/12/27 04:11:07;;;;;;;3.23;2.57;;;4.60;1.00;;;;;;4982948;28;20197;-88
2021/12/27 04:13:34;;;;;;;5.10;2.47;;;4.60;1.00;;;;;;4982210;28;20197;-88
2021/12/27 04:16:01;;;;;;;7.87;2.77;;;4.60;1.00;;;;;;4981708;28;20197;-89
2021/12/27 04:18:28;;;;;;;4.43;2.70;;;4.60;1.00;;;;;;4982394;28;20197;-88
2021/12/27 04:20:55;;;;;;;4.00;2.73;;;4.70;1.00;;;;;;4982807;28;20195;-89
2021/12/27 04:23:22;;;;;;;3.37;2.50;;;4.70;1.00;;;;;;4966032;28;20217;-88
2021/12/27 04:25:49;;;;;;;3.77;2.93;;;4.70;1.00;;;;;;4981365;28;20729;-87
2021/12/27 04:28:17;;;;;;;3.80;2.80;;;4.70;1.00;;;;;;4981800;28;20198;-88
2021/12/27 04:30:44;;;;;;;3.50;2.87;;;4.70;1.00;;;;;;4981696;28;20685;-89
2021/12/27 04:33:11;;;;;;;7.40;3.10;;;4.70;1.00;;;;;;4982011;28;20217;-88
2021/12/27 04:35:38;;;;;;;7.00;3.57;;;4.70;1.00;;;;;;4982898;28;20279;-89
2021/12/27 04:38:05;;;;;;;5.40;3.10;;;4.60;1.00;;;;;;4983227;28;20186;-88
2021/12/27 04:40:36;;;;;;;5.43;3.53;;;4.60;1.00;;;;;;4983756;28;20672;-89
2021/12/27 04:43:09;;;;;;;4.03;3.40;;;4.50;1.00;;;;;;4982566;28;20217;-89
2021/12/27 04:45:37;;;;;;;5.53;3.57;;;4.50;1.00;;;;;;4998870;28;20181;-89
2021/12/27 04:48:06;;;;;;;8.43;3.43;;;4.40;1.00;;;;;;4984855;28;20656;-89
2021/12/27 04:50:34;;;;;;;4.37;3.40;;;4.30;1.00;;;;;;4987449;28;20247;-89
2021/12/27 04:53:01;;;;;;;5.37;3.57;;;4.30;1.00;;;;;;4986348;28;20204;-89
2021/12/27 04:55:30;;;;;;;6.80;3.90;;;4.20;1.00;;;;;;4970145;28;20235;-89
2021/12/27 04:57:57;;;;;;;4.77;3.87;;;4.10;1.00;;;;;;4986453;28;20585;-89
2021/12/27 05:00:24;;;;;;;5.60;3.93;;;4.00;1.00;;;;;;4984661;28;20209;-90
2021/12/27 05:02:51;;;;;;;6.83;4.63;;;4.00;1.00;;;;;;4985624;28;20219;-89
2021/12/27 05:05:18;;;;;;;9.17;4.30;;;3.90;1.00;;;;;;4983553;28;20198;-90
2021/12/27 05:07:47;;;;;;;7.97;5.20;;;3.90;1.00;;;;;;4985502;28;20200;-90
2021/12/27 05:10:16;;;;;;;6.37;4.47;;;3.90;1.00;;;;;;4985882;28;20633;-90
2021/12/27 05:12:43;;;;;;;16.33;5.10;;;3.80;1.00;;;;;;5002455;28;20205;-91
2021/12/27 05:15:11;;;;;;;24.23;6.37;;;3.80;1.00;;;;;;4986418;28;20520;-89
2021/12/27 05:17:38;;;;;;;192.87;14.37;;;3.70;1.00;;;;;;4985876;28;20660;-90
2021/12/27 05:20:08;;;;;;;533.97;23.10;;;3.60;1.00;;;;;;4985539;28;20199;-90
2021/12/27 05:22:37;;;;;;;27.77;6.33;;;3.50;1.00;;;;;;4985801;28;20244;-90
2021/12/27 05:25:05;;;;;;;9.17;4.93;;;3.50;1.00;;;;;;5018588;28;20193;-90
2021/12/27 05:27:36;;;;;;;9.87;5.20;;;3.40;1.00;;;;;;4985941;28;20185;-91
2021/12/27 05:30:17;;;;;;;8.97;5.13;;;3.40;1.00;;;;;;4987853;28;20201;-89
2021/12/27 05:32:44;;;;;;;12.57;5.47;;;3.40;1.00;;;;;;4986136;28;20194;-90
2021/12/27 05:35:13;;;;;;;25.50;6.67;;;3.40;1.00;;;;;;4985776;28;20212;-90
2021/12/27 05:37:40;;;;;;;12.40;5.40;;;3.30;1.00;;;;;;4985351;28;20193;-90
2021/12/27 05:40:11;;;;;;;11.80;5.13;;;3.30;1.00;;;;;;4984689;28;20204;-90
2021/12/27 05:42:39;;;;;;;10.03;5.47;;;3.30;1.00;;;;;;4977396;28;20296;-88
2021/12/27 05:45:07;;;;;;;22.20;5.70;;;3.20;1.00;;;;;;4979882;28;20186;-90
2021/12/27 05:47:37;;;;;;;13.37;5.30;;;3.10;1.00;;;;;;4980117;28;20194;-88
2021/12/27 05:50:06;;;;;;;11.03;5.17;;;3.20;1.00;;;;;;4964121;28;20204;-89
2021/12/27 05:52:34;;;;;;;7.23;4.40;;;3.20;1.00;;;;;;4948264;28;20224;-88
2021/12/27 05:55:01;;;;;;;6.33;3.90;;;3.20;1.00;;;;;;4963968;28;20213;-88
2021/12/27 05:57:29;;;;;;;6.20;3.50;;;3.20;1.00;;;;;;4964731;28;20201;-89
2021/12/27 05:59:57;;;;;;;5.90;3.43;;;3.20;1.00;;;;;;4979984;28;20186;-88
2021/12/27 06:02:25;;;;;;;8.40;4.20;;;3.20;1.00;;;;;;4980162;28;20206;-88
2021/12/27 06:04:53;;;;;;;114.47;7.77;;;3.20;1.00;;;;;;4978749;28;20284;-88
2021/12/27 06:07:20;;;;;;;76.90;7.17;;;3.00;1.00;;;;;;4999885;28;20553;-87
2021/12/27 06:09:47;;;;;;;3.93;3.20;;;3.00;1.00;;;;;;4983643;28;20201;-88
2021/12/27 06:12:14;;;;;;;11.33;4.03;;;3.00;1.00;;;;;;4983730;28;20231;-88
2021/12/27 06:14:41;;;;;;;10.80;3.50;;;3.00;1.00;;;;;;4983098;28;20193;-88
2021/12/27 06:17:08;;;;;;;5.53;3.50;;;2.90;1.00;;;;;;4983488;28;20251;-88
2021/12/27 06:19:35;;;;;;;9.10;4.07;;;2.90;1.00;;;;;;4983202;28;20203;-88
2021/12/27 06:22:03;;;;;;;11.70;4.43;;;3.00;1.00;;;;;;4982686;28;20213;-89
2021/12/27 06:24:30;;;;;;;17.67;4.87;;;3.20;1.00;;;;;;4982915;28;20727;-88
2021/12/27 06:26:57;;;;;;;13.60;4.43;;;3.20;1.00;;;;;;5004188;28;20243;-89
2021/12/27 06:29:24;;;;;;;12.40;4.13;;;3.20;1.00;;;;;;4983611;28;20188;-89
2021/12/27 06:31:51;;;;;;;8.93;4.43;;;3.30;1.00;;;;;;4983128;28;20288;-89
2021/12/27 06:34:18;;;;;;;8.47;3.40;;;3.30;1.00;;;;;;4983107;28;20192;-88
2021/12/27 06:36:46;;;;;;;6.00;3.60;;;3.20;1.00;;;;;;4983115;28;20196;-89
2021/12/27 06:39:13;;;;;;;7.33;3.60;;;3.10;1.00;;;;;;4982647;28;20691;-88
2021/12/27 06:41:40;;;;;;;11.53;4.10;;;3.00;1.00;;;;;;4999156;28;20699;-87
2021/12/27 06:44:07;;;;;;;6.73;3.67;;;3.00;1.00;;;;;;4983407;28;20196;-89
2021/12/27 06:46:34;;;;;;;9.80;3.87;;;2.90;1.00;;;;;;4983508;28;20197;-89
2021/12/27 06:49:02;;;;;;;335.03;19.67;;;2.80;1.00;;;;;;4983150;28;20189;-88
2021/12/27 06:51:30;;;;;;;5.17;2.87;;;2.80;1.00;;;;;;4983236;28;20674;-89
2021/12/27 06:53:57;;;;;;;342.50;20.63;;;2.70;1.00;;;;;;4999663;28;20185;-90
2021/12/27 06:56:24;;;;;;;221.43;11.77;;;2.80;1.00;;;;;;4999026;28;20267;-88
2021/12/27 06:58:52;;;;;;;8.20;3.03;;;2.70;1.00;;;;;;4999717;28;20189;-87
2021/12/27 07:01:19;;;;;;;3.90;2.97;;;2.80;1.00;;;;;;4982935;28;20280;-89
2021/12/27 07:03:47;;;;;;;3.70;2.27;;;2.90;1.00;;;;;;4999669;28;20751;-89
2021/12/27 07:06:14;;;;;;;3.70;2.20;;;3.10;1.00;;;;;;4984591;28;20769;-90
2021/12/27 07:08:47;;;;;;;2.20;1.73;;;3.40;1.00;;;;;;4985205;28;20189;-89
2021/12/27 07:11:18;;;;;;;2.17;1.60;;;3.60;1.00;;;;;;4984473;28;20185;-87
2021/12/27 07:14:01;;;;;;;2.07;1.60;;;3.70;1.00;;;;;;4986442;28;20200;-91
2021/12/27 07:17:14;;;;;;;3.20;2.03;;;3.90;1.00;;;;;;5021816;28;20204;-87
2021/12/27 07:19:43;;;;;;;3.20;1.83;;;3.90;1.00;;;;;;5016535;28;20197;-88
2021/12/27 07:22:10;;;;;;;21.63;12.37;;;3.90;1.00;;;;;;4964271;28;20264;-85
2021/12/27 07:24:40;;;;;;;10.03;4.20;;;3.90;1.00;;;;;;4963221;28;20198;-90
2021/12/27 07:27:11;;;;;;;417.53;22.23;;;3.80;1.00;;;;;;4979642;28;20194;-88
2021/12/27 07:30:01;;;;;;;579.20;27.63;;;3.60;1.00;;;;;;4967119;28;20287;-89
2021/12/27 07:32:32;;;;;;;321.23;20.00;;;3.50;1.00;;;;;;4963972;28;20232;-89
2021/12/27 07:35:00;;;;;;;159.47;13.40;;;3.40;1.00;;;;;;4964587;28;20198;-89
2021/12/27 07:37:33;;;;;;;469.93;20.80;;;3.40;1.00;;;;;;4963669;28;20194;-88
2021/12/27 07:40:24;;;;;;;304.43;18.77;;;3.40;1.00;;;;;;4968017;28;20198;-89
2021/12/27 07:43:13;;;;;;;413.63;26.77;;;3.40;1.00;;;;;;4964540;28;20786;-90
2021/12/27 07:45:53;;;;;;;389.23;16.43;;;3.50;1.00;;;;;;4994961;28;20193;-89
2021/12/27 07:48:29;;;;;;;225.70;13.13;;;3.30;1.00;;;;;;4984947;28;20216;-89
2021/12/27 07:51:06;;;;;;;20.70;3.87;;;3.30;1.00;;;;;;4983866;28;20287;-87
2021/12/27 07:53:40;;;;;;;12.03;10.03;;;3.20;1.00;;;;;;5001464;28;20610;-93
2021/12/27 07:56:09;;;;;;;4.80;4.30;;;3.30;1.00;;;;;;4965531;28;20216;-86
2021/12/27 07:58:38;;;;;;;2.53;2.10;;;3.50;1.00;;;;;;4982745;28;20225;-87
2021/12/27 08:01:05;;;;;;;4.43;2.30;;;3.70;1.00;;;;;;4982689;28;20733;-87
2021/12/27 08:03:36;;;;;;;3.67;3.20;;;3.90;1.00;;;;;;4982922;28;20578;-92
2021/12/27 08:06:11;;;;;;;4.90;3.00;;;4.10;1.00;;;;;;4984022;28;20193;-92
2021/12/27 08:08:44;;;;;;;3.17;2.07;;;4.30;1.00;;;;;;4982921;28;20200;-91
2021/12/27 08:11:20;;;;;;;2.50;2.27;;;4.50;1.00;;;;;;4984994;28;20217;-90
2021/12/27 08:13:48;;;;;;;1.63;1.17;;;4.50;1.00;;;;;;4983905;28;20224;-89
2021/12/27 08:16:17;;;;;;;3.10;2.67;;;4.70;1.00;;;;;;4983043;28;20892;-90
2021/12/27 08:19:28;;;;;;;2.70;1.67;;;4.90;1.00;;;;;;4983879;28;20640;-90
2021/12/27 08:21:57;;;;;;;2.37;2.17;;;5.00;1.00;;;;;;4983689;28;20324;-90
2021/12/27 08:24:33;;;;;;;2.53;1.20;;;5.10;1.00;;;;;;4989382;28;20200;-93
2021/12/27 08:27:05;;;;;;;1.67;1.40;;;5.20;1.00;;;;;;4983336;28;20186;-93
2021/12/27 08:29:48;;;;;;;2.10;1.47;;;5.30;1.00;;;;;;4969476;28;20588;-92
2021/12/27 08:32:28;;;;;;;2.60;1.50;;;5.20;1.00;;;;;;4982479;28;20237;-92
2021/12/27 08:35:09;;;;;;;1.33;1.20;;;5.40;1.00;;;;;;4989009;28;20205;-94
2021/12/27 08:37:44;;;;;;;3.10;1.40;;;5.50;1.00;;;;;;5003828;28;20567;-92
2021/12/27 08:40:14;;;;;;;1.23;1.10;;;5.80;1.00;;;;;;4988478;28;20260;-91
2021/12/27 08:42:54;;;;;;;1.20;1.10;;;6.00;1.00;;;;;;5002594;28;20220;-91
2021/12/27 08:45:32;;;;;;;1.90;1.20;;;6.20;1.00;;;;;;5002716;28;20189;-88
2021/12/27 08:48:00;;;;;;;0.93;0.90;;;6.30;1.00;;;;;;5002110;28;20197;-88
2021/12/27 08:50:27;;;;;;;0.93;0.77;;;6.30;1.00;;;;;;4985886;28;20612;-88
2021/12/27 08:52:55;;;;;;;0.97;0.80;;;6.30;1.00;;;;;;4985571;28;20721;-89
2021/12/27 08:55:23;;;;;;;4.33;1.57;;;6.60;1.00;;;;;;4986056;28;20687;-88
2021/12/27 08:57:51;;;;;;;5.10;1.92;;;6.80;1.00;;;;;;4984689;28;20197;-88
2021/12/27 09:00:23;;;;;;;9.87;2.47;;;6.80;1.00;;;;;;4986991;28;20199;-86
2021/12/27 09:02:53;;;;;;;23.77;2.80;;;6.60;1.00;;;;;;5001547;28;20747;-86
2021/12/27 09:05:22;;;;;;;267.97;9.47;;;6.40;1.00;;;;;;4985188;28;20203;-86
2021/12/27 09:07:50;;;;;;;337.70;11.27;;;6.10;99.90;;;;;;5001500;28;20181;-86
2021/12/27 09:10:19;;;;;;;384.97;11.73;;;5.80;99.90;;;;;;4985259;28;20197;-86
2021/12/27 09:12:46;;;;;;;405.70;14.03;;;5.60;99.90;;;;;;4985220;28;20208;-87
2021/12/27 09:15:21;;;;;;;358.90;13.10;;;5.40;78.20;;;;;;5001931;28;20695;-87
2021/12/27 09:17:56;;;;;;;172.97;8.97;;;5.40;98.90;;;;;;5000828;28;20244;-88
2021/12/27 09:20:25;;;;;;;206.37;8.80;;;5.40;48.20;;;;;;5001016;28;20291;-87
2021/12/27 09:22:59;;;;;;;137.63;9.03;;;5.50;10.10;;;;;;5000422;28;20216;-90
2021/12/27 09:25:29;;;;;;;100.73;8.67;;;5.50;1.00;;;;;;5000782;28;20201;-90
2021/12/27 09:28:01;;;;;;;105.13;8.73;;;5.60;1.00;;;;;;4984875;28;20181;-89
2021/12/27 09:30:31;;;;;;;68.20;5.23;;;5.50;1.00;;;;;;4983363;28;20844;-87
2021/12/27 09:32:59;;;;;;;147.83;9.47;;;5.60;1.00;;;;;;4981670;28;20217;-88
2021/12/27 09:35:27;;;;;;;65.33;7.50;;;5.70;99.90;;;;;;4982133;28;20264;-88
2021/12/27 09:37:55;;;;;;;48.80;9.03;;;5.70;99.90;;;;;;4982340;28;20774;-88
2021/12/27 09:40:23;;;;;;;36.77;3.60;;;5.80;99.90;;;;;;4982217;28;20219;-89
2021/12/27 09:42:52;;;;;;;34.97;3.50;;;5.90;99.90;;;;;;4982819;28;20267;-89
2021/12/27 09:45:22;;;;;;;5.37;2.67;;;5.90;99.90;;;;;;4983548;28;20225;-88
2021/12/27 09:47:51;;;;;;;5.30;4.00;;;5.90;99.90;;;;;;4983253;28;20198;-87
2021/12/27 09:50:29;;;;;;;6.10;2.97;;;5.90;44.20;;;;;;4984338;28;20618;-87
2021/12/27 09:52:57;;;;;;;39.90;4.33;;;5.90;72.00;;;;;;4983017;28;20284;-87
2021/12/27 09:55:26;;;;;;;74.70;5.83;;;5.80;36.60;;;;;;4983257;28;20613;-87
2021/12/27 09:57:55;;;;;;;73.27;6.73;;;5.70;64.60;;;;;;4983439;28;20735;-90
2021/12/27 10:00:23;;;;;;;160.13;10.10;;;5.60;86.20;;;;;;4983385;28;20200;-88
2021/12/27 10:02:56;;;;;;;157.50;9.07;;;5.60;99.90;;;;;;4983258;28;20228;-90
2021/12/27 10:05:27;;;;;;;104.20;7.10;;;5.60;85.80;;;;;;4983500;28;20197;-90
2021/12/27 10:07:55;;;;;;;214.77;10.57;;;5.50;23.40;;;;;;5000113;28;20282;-91
2021/12/27 10:10:32;;;;;;;171.33;10.30;;;5.40;1.00;;;;;;4984224;28;20189;-84
2021/12/27 10:13:00;;;;;;;296.80;14.13;;;5.20;75.10;;;;;;4999501;28;20197;-88
2021/12/27 10:15:42;;;;;;;208.97;10.87;;;5.10;72.30;;;;;;4983839;28;20189;-88
2021/12/27 10:18:16;;;;;;;223.13;9.87;;;5.10;99.90;;;;;;4983408;28;20292;-88
2021/12/27 10:20:45;;;;;;;283.50;11.73;;;5.10;99.90;;;;;;5002149;28;20189;-90
2021/12/27 10:23:13;;;;;;;47.30;4.60;;;5.20;99.90;;;;;;4984577;28;20296;-92
2021/12/27 10:25:41;;;;;;;19.20;3.27;;;5.30;99.90;;;;;;4985838;28;20578;-91
2021/12/27 10:28:13;;;;;;;58.97;4.40;;;5.20;1.00;;;;;;4986530;28;20681;-88
2021/12/27 10:31:02;;;;;;;59.80;4.80;;;5.00;1.00;;;;;;5016883;28;20304;-89
2021/12/27 10:33:33;;;;;;;28.47;4.27;;;4.90;5.70;;;;;;4985708;28;20193;-90
2021/12/27 10:36:06;;;;;;;73.07;5.63;;;4.80;44.70;;;;;;5018276;28;20204;-92
2021/12/27 10:38:41;;;;;;;17.07;3.37;;;4.60;99.90;;;;;;5017323;28;20228;-92
2021/12/27 10:41:10;;;;;;;17.80;3.90;;;4.60;99.90;;;;;;5015376;28;20670;-89
2021/12/27 10:43:46;;;;;;;12.93;3.53;;;4.60;99.90;;;;;;4999580;28;20237;-92
2021/12/27 10:46:36;;;;;;;39.93;5.37;;;4.70;1.00;;;;;;4986613;28;20209;-90
2021/12/27 10:49:03;;;;;;;6.30;3.37;;;4.80;1.00;;;;;;4985143;28;20664;-90
2021/12/27 10:51:30;;;;;;;10.17;3.87;;;4.80;99.90;;;;;;5001820;28;20196;-90
2021/12/27 10:54:02;;;;;;;4.43;3.30;;;4.90;99.90;;;;;;4984762;28;20193;-90
2021/12/27 10:56:54;;;;;;;4.30;3.33;;;5.00;99.90;;;;;;4985547;28;20196;-92
2021/12/27 10:59:25;;;;;;;3.90;3.30;;;5.00;99.90;;;;;;4985509;28;20193;-90
2021/12/27 11:01:52;;;;;;;4.93;3.63;;;4.90;99.90;;;;;;4983925;28;20678;-90
2021/12/27 11:04:19;;;;;;;7.70;5.00;;;4.80;99.90;;;;;;4986634;28;20717;-88
2021/12/27 11:06:49;;;;;;;4.60;3.77;;;4.80;99.90;;;;;;4983770;28;20200;-89
2021/12/27 11:09:17;;;;;;;4.63;3.60;;;4.70;99.90;;;;;;4982403;28;20196;-91
2021/12/27 11:11:45;;;;;;;10.17;4.60;;;4.70;99.90;;;;;;4983532;28;20219;-91
2021/12/27 11:14:12;;;;;;;50.10;15.50;;;4.80;1.00;;;;;;4983664;28;20605;-87
2021/12/27 11:16:39;;;;;;;53.33;7.00;;;4.80;1.00;;;;;;5000220;28;20197;-90
2021/12/27 11:19:06;;;;;;;29.40;5.97;;;4.80;99.90;;;;;;4982820;28;20207;-90
2021/12/27 11:21:37;;;;;;;50.37;11.60;;;4.70;99.90;;;;;;4982835;28;20563;-91
2021/12/27 11:24:05;;;;;;;47.83;10.40;;;4.70;1.00;;;;;;4982691;28;20219;-91
2021/12/27 11:26:38;;;;;;;52.93;10.03;;;4.70;1.00;;;;;;4999450;28;20186;-89
2021/12/27 11:29:10;;;;;;;34.47;6.43;;;4.70;1.00;;;;;;4984070;28;20189;-90
2021/12/27 11:31:38;;;;;;;9.37;5.50;;;4.70;1.00;;;;;;5001232;28;20197;-91
2021/12/27 11:34:08;;;;;;;10.97;5.30;;;4.70;1.00;;;;;;4982941;28;20193;-87
2021/12/27 11:36:41;;;;;;;15.13;9.70;;;4.70;1.00;;;;;;4985386;28;20725;-90
2021/12/27 11:39:29;;;;;;;7.67;5.97;;;4.80;1.00;;;;;;4982848;28;20255;-88
2021/12/27 11:42:03;;;;;;;15.10;7.83;;;4.80;1.00;;;;;;4986651;28;20216;-86
2021/12/27 11:44:58;;;;;;;7.40;5.20;;;4.90;99.90;;;;;;4988176;28;20237;-89
2021/12/27 11:47:30;;;;;;;9.57;5.57;;;5.00;99.90;;;;;;4989972;28;20189;-91
2021/12/27 11:49:59;;;;;;;13.33;8.43;;;5.00;99.90;;;;;;4985103;28;20192;-88
2021/12/27 11:52:31;;;;;;;10.07;5.83;;;5.10;99.90;;;;;;4999905;28;20255;-89
2021/12/27 11:55:05;;;;;;;7.10;5.50;;;5.20;99.90;;;;;;4982682;28;20727;-92
2021/12/27 11:57:45;;;;;;;12.20;6.07;;;5.20;99.90;;;;;;4980534;28;20188;-87
2021/12/27 12:00:20;;;;;;;8.63;6.57;;;5.20;99.90;;;;;;4981981;28;20291;-90
2021/12/27 12:02:51;;;;;;;14.87;5.50;;;5.20;99.90;;;;;;4999767;28;20203;-90
2021/12/27 12:05:37;;;;;;;9.30;6.20;;;5.20;99.90;;;;;;5000524;28;20220;-87
2021/12/27 12:08:06;;;;;;;9.50;5.87;;;5.20;99.90;;;;;;4998828;28;20565;-85
2021/12/27 12:10:34;;;;;;;7.77;5.87;;;5.10;99.90;;;;;;4984260;28;20239;-88
2021/12/27 12:13:27;;;;;;;8.50;5.87;;;5.20;99.90;;;;;;4965454;28;20652;-90
2021/12/27 12:16:06;;;;;;;7.50;5.50;;;5.30;99.90;;;;;;4981907;28;20196;-87
2021/12/27 12:18:37;;;;;;;9.93;6.37;;;5.30;99.90;;;;;;4981963;28;20197;-84
2021/12/27 12:21:05;;;;;;;9.43;6.50;;;5.30;99.90;;;;;;4981903;28;20197;-89
2021/12/27 12:23:55;;;;;;;8.73;6.33;;;5.30;99.90;;;;;;4999587;28;20293;-87
2021/12/27 12:26:22;;;;;;;8.73;6.13;;;5.30;99.90;;;;;;4981445;28;20184;-85
2021/12/27 12:28:59;;;;;;;7.60;5.43;;;5.40;99.90;;;;;;4980870;28;20193;-86
2021/12/27 12:31:34;;;;;;;7.83;5.43;;;5.60;99.90;;;;;;4981295;28;20292;-85
2021/12/27 12:34:27;;;;;;;8.53;5.70;;;5.70;99.90;;;;;;4982033;28;20201;-87
2021/12/27 12:36:57;;;;;;;8.67;5.80;;;5.80;94.00;;;;;;4975831;28;20221;-83
2021/12/27 12:39:43;;;;;;;7.90;5.70;;;5.80;7.80;;;;;;5010296;28;20681;-92
2021/12/27 12:42:16;;;;;;;11.07;6.27;;;5.80;1.00;;;;;;4982066;28;20227;-88
2021/12/27 12:44:59;;;;;;;8.77;5.63;;;5.70;1.00;;;;;;4981669;28;20308;-88
2021/12/27 12:47:39;;;;;;;7.47;5.63;;;5.70;68.30;;;;;;4981522;28;20194;-89
2021/12/27 12:50:14;;;;;;;10.53;6.63;;;5.70;99.90;;;;;;4980942;28;20278;-84
2021/12/27 12:53:11;;;;;;;8.43;5.73;;;5.70;99.90;;;;;;4981270;28;20189;-86
2021/12/27 12:55:39;;;;;;;7.90;5.60;;;5.60;99.90;;;;;;4962041;28;20205;-85
2021/12/27 12:58:06;;;;;;;11.87;6.60;;;5.60;99.90;;;;;;4996683;28;20194;-85
2021/12/27 13:00:36;;;;;;;8.07;6.53;;;5.60;99.90;;;;;;4996784;28;20292;-90
2021/12/27 13:03:13;;;;;;;10.97;6.33;;;5.60;99.90;;;;;;4981348;28;20182;-83
2021/12/27 13:05:41;;;;;;;8.33;6.40;;;5.60;99.90;;;;;;4979951;28;20197;-83
2021/12/27 13:08:13;;;;;;;9.13;6.60;;;5.50;99.90;;;;;;4980311;28;20200;-84
2021/12/27 13:10:41;;;;;;;9.23;6.47;;;5.60;99.90;;;;;;4983782;28;20263;-83
2021/12/27 13:13:27;;;;;;;8.97;6.30;;;5.60;99.90;;;;;;4984004;28;20280;-82
2021/12/27 13:15:57;;;;;;;10.13;6.43;;;5.50;99.90;;;;;;4984344;28;20231;-86
2021/12/27 13:18:28;;;;;;;9.40;6.20;;;5.50;99.90;;;;;;4984605;28;20215;-86
2021/12/27 13:20:58;;;;;;;11.73;6.60;;;5.50;99.90;;;;;;4984651;28;20193;-89
2021/12/27 13:23:27;;;;;;;10.63;5.93;;;5.50;99.90;;;;;;4983090;28;20193;-83